Flight Track Log - Related Links

Times and Time Zones

All times are in EDT time to prevent confusion due to time zone crossing. See the ELT218 flight status page for this flight to view local times or setup timezone preferences in your user account.

Time Position Orientation Groundspeed Altitude Reporting Facility
EDT Latitude Longitude Course Direction KTS MPH feet Rate Location/Type
Fri 08:42:12 AM 46.8947 -92.2894 336° Northwest 156 180 5,400  Level Minneapolis Center
Fri 08:43:13 AM 46.9389 -92.3217 334° Northwest 167 192 7,200 1,770 Climbing Minneapolis Center
Fri 08:44:14 AM 46.9847 -92.3517 336° Northwest 174 200 9,000 1,672 Climbing Minneapolis Center
Fri 08:45:15 AM 47.0328 -92.3772 340° North 179 206 10,600 1,525 Climbing Minneapolis Center
Fri 08:46:00 AM 47.1562 -92.4091 334° Northwest  Level FlightAware Approximate
Fri 08:46:16 AM 47.0797 -92.4075 336° Northwest 183 211 12,100  Level Minneapolis Center
Fri 08:47:00 AM 47.2104 -92.4458 336° Northwest  Level FlightAware Approximate
Fri 08:47:16 AM 47.1275 -92.4372 337° Northwest 186 214 13,600  Level Minneapolis Center
Fri 08:48:17 AM 47.1775 -92.4692 337° Northwest 192 221 14,800 1,230 Climbing Minneapolis Center
Fri 08:49:18 AM 47.2275 -92.5025 336° Northwest 197 227 16,100 639 Climbing Minneapolis Center
Fri 08:50:19 AM 47.2711 -92.5314 336° Northwest 206 237 16,100 -49 Level Minneapolis Center
Fri 08:51:20 AM 47.3444 -92.5794 336° Northwest 235 270 16,000 -49 Descending Minneapolis Center
Fri 08:52:21 AM 47.4158 -92.6261 336° Northwest 235 270 16,000  Level Minneapolis Center
Fri 08:53:22 AM 47.4786 -92.6669 336° Northwest 243 280 16,000  Level Minneapolis Center
Fri 08:54:22 AM 47.5444 -92.7100 336° Northwest 256 295 16,000  Level Minneapolis Center
Fri 08:55:35 AM 47.6247 -92.7633 336° Northwest 263 303 16,000  Level Minneapolis Center
Fri 08:56:36 AM 47.6911 -92.8092 335° Northwest 264 304 16,000  Level Minneapolis Center
Fri 08:57:37 AM 47.7583 -92.8519 337° Northwest 265 305 16,000  Level Minneapolis Center
Fri 08:58:50 AM 47.8258 -92.8933 338° Northwest 264 304 16,000 -438 Level Minneapolis Center
Fri 08:59:54 AM 47.9061 -92.9442 337° Northwest 263 303 15,000 -1,296 Descending Minneapolis Center
Fri 09:00:55 AM 47.9861 -92.9950 337° Northwest 262 302 13,300 -1,478 Descending Minneapolis Center
Fri 09:02:08 AM 48.0642 -93.0456 337° Northwest 260 299 11,700 -1,299 Descending Minneapolis Center
Fri 09:03:09 AM 48.1281 -93.0872 336° Northwest 256 295 10,400 -1,328 Descending Minneapolis Center
Fri 09:04:10 AM 48.1922 -93.1278 337° Northwest 253 291 9,000 -1,180 Descending Minneapolis Center
Fri 09:05:11 AM 48.2431 -93.1611 336° Northwest 252 290 8,000 -984 Descending Minneapolis Center

Login

Don't have an account? Register now (free) for customized features, flight alerts, and more!